createdAt,value
2019-05-07T00:01:52.611Z,69.89
2019-05-07T00:04:22.436Z,70.42
2019-05-07T00:06:52.943Z,70.18
2019-05-07T00:09:23.483Z,70.26
2019-05-07T00:11:53.471Z,70.27
2019-05-07T00:14:24.242Z,69.98
2019-05-07T00:16:54.041Z,70.83
2019-05-07T00:19:24.168Z,69.98
2019-05-07T00:21:54.158Z,70.32
2019-05-07T00:24:23.779Z,70.21
2019-05-07T00:26:53.457Z,70.42
2019-05-07T00:29:23.114Z,69.32
2019-05-07T00:31:52.752Z,70.72
2019-05-07T00:34:24.277Z,70.21
2019-05-07T00:37:02.295Z,69.92
2019-05-07T00:39:35.947Z,71.45
2019-05-07T00:42:07.370Z,70.95
2019-05-07T00:44:38.647Z,70.11
2019-05-07T00:47:08.289Z,70.31
2019-05-07T00:49:37.930Z,71.35
2019-05-07T00:52:07.558Z,70.97
2019-05-07T00:54:37.199Z,71.25
2019-05-07T00:57:06.806Z,71.26
2019-05-07T00:59:36.450Z,71.54
2019-05-07T01:02:06.143Z,70.45
2019-05-07T01:04:35.778Z,70.23
2019-05-07T01:07:05.539Z,70.98
2019-05-07T01:09:35.195Z,70.71
2019-05-07T01:12:05.448Z,71.20
2019-05-07T01:14:35.064Z,70.03
2019-05-07T01:17:04.777Z,71.02
2019-05-07T01:19:34.385Z,69.46
2019-05-07T01:22:04.034Z,69.47
2019-05-07T01:24:33.656Z,69.36
2019-05-07T01:27:03.297Z,70.78
2019-05-07T01:29:32.985Z,71.01
2019-05-07T01:32:04.278Z,71.68
2019-05-07T01:34:37.990Z,70.19
2019-05-07T01:37:07.629Z,69.60
2019-05-07T01:39:37.252Z,70.76
2019-05-07T01:42:06.888Z,71.24
2019-05-07T01:44:36.495Z,71.23
2019-05-07T01:47:06.150Z,69.18
2019-05-07T01:49:35.767Z,68.88
2019-05-07T01:52:05.453Z,69.98
2019-05-07T01:54:35.106Z,70.24
2019-05-07T01:57:04.857Z,70.63
2019-05-07T01:59:34.561Z,72.64
2019-05-07T02:02:05.905Z,72.62
2019-05-07T02:04:37.174Z,73.84
2019-05-07T02:07:24.582Z,73.74
2019-05-07T02:10:11.955Z,72.82
2019-05-07T02:12:42.617Z,71.13
2019-05-07T02:15:12.964Z,71.86
2019-05-07T02:17:43.059Z,70.31
2019-05-07T02:20:13.323Z,71.67
2019-05-07T02:22:43.010Z,70.41
2019-05-07T02:25:12.961Z,70.80
2019-05-07T02:27:42.574Z,70.15
2019-05-07T02:30:14.774Z,71.55
2019-05-07T02:32:43.812Z,71.12
2019-05-07T02:35:13.949Z,70.43
2019-05-07T02:37:51.317Z,70.49
2019-05-07T02:40:34.154Z,69.27
2019-05-07T02:43:04.034Z,70.19
2019-05-07T02:45:53.500Z,70.17
2019-05-07T02:48:24.185Z,69.82
2019-05-07T02:51:05.676Z,67.85
2019-05-07T02:53:42.906Z,69.10
2019-05-07T02:56:12.957Z,69.87
2019-05-07T02:58:43.429Z,70.06
2019-05-07T03:01:13.979Z,69.21
2019-05-07T03:03:44.947Z,69.45
2019-05-07T03:06:15.022Z,69.11
2019-05-07T03:08:45.169Z,69.89
2019-05-07T03:11:15.125Z,67.52
2019-05-07T03:13:45.089Z,67.95
2019-05-07T03:16:14.782Z,69.74
2019-05-07T03:18:44.476Z,69.92
2019-05-07T03:21:15.746Z,67.30
2019-05-07T03:23:53.956Z,66.65
2019-05-07T03:26:25.422Z,66.94
2019-05-07T03:28:56.676Z,66.92
2019-05-07T03:31:28.027Z,68.67
2019-05-07T03:34:06.970Z,69.88
2019-05-07T03:36:46.553Z,70.01
2019-05-07T03:39:14.375Z,69.99
2019-05-07T03:41:44.502Z,69.35
2019-05-07T03:44:27.774Z,68.11
2019-05-07T03:47:06.033Z,67.57
2019-05-07T03:49:34.242Z,68.56
2019-05-07T03:52:04.434Z,70.33
2019-05-07T03:54:34.429Z,69.49
2019-05-07T03:57:10.768Z,67.64
2019-05-07T03:59:35.530Z,67.53
2019-05-07T04:02:05.749Z,69.59
2019-05-07T04:04:35.602Z,69.75
2019-05-07T04:07:05.449Z,69.44
2019-05-07T04:09:35.068Z,68.77
2019-05-07T04:12:05.024Z,69.54
2019-05-07T04:14:34.923Z,69.62
2019-05-07T04:17:16.583Z,67.62
2019-05-07T04:19:36.058Z,68.20
2019-05-07T04:22:05.750Z,69.31
2019-05-07T04:24:42.930Z,69.73
2019-05-07T04:27:13.005Z,67.05
2019-05-07T04:29:43.122Z,68.58
2019-05-07T04:32:14.485Z,70.36
2019-05-07T04:34:45.847Z,70.19
2019-05-07T04:37:16.158Z,67.82
2019-05-07T04:39:54.456Z,66.72
2019-05-07T04:42:24.990Z,67.21
2019-05-07T04:44:54.721Z,68.54
2019-05-07T04:47:38.471Z,69.15
2019-05-07T04:49:55.682Z,70.00
2019-05-07T04:52:35.703Z,71.06
2019-05-07T04:55:07.618Z,71.25
2019-05-07T04:57:37.269Z,71.72
2019-05-07T05:00:13.150Z,71.09
2019-05-07T05:02:43.653Z,71.22
2019-05-07T05:05:14.923Z,71.10
2019-05-07T05:07:44.562Z,70.79
2019-05-07T05:10:14.518Z,69.91
2019-05-07T05:12:44.162Z,72.00
2019-05-07T05:15:14.180Z,70.65
2019-05-07T05:17:50.445Z,71.49
2019-05-07T05:20:18.276Z,70.88
2019-05-07T05:22:49.630Z,71.92
2019-05-07T05:25:27.053Z,70.40
2019-05-07T05:27:56.691Z,71.63
2019-05-07T05:30:32.709Z,71.01
2019-05-07T05:33:04.404Z,72.39
2019-05-07T05:35:33.839Z,71.79
2019-05-07T05:38:03.456Z,72.56
2019-05-07T05:40:33.168Z,71.86
2019-05-07T05:43:06.935Z,71.55
2019-05-07T05:45:42.588Z,72.71
2019-05-07T05:48:13.617Z,72.28
2019-05-07T05:50:55.144Z,72.87
2019-05-07T05:53:32.765Z,71.74
2019-05-07T05:56:20.137Z,73.06
2019-05-07T05:58:54.059Z,73.67
2019-05-07T06:01:42.634Z,74.34
2019-05-07T06:04:22.153Z,73.35
2019-05-07T06:07:12.234Z,73.58
2019-05-07T06:09:48.471Z,72.39
2019-05-07T06:12:22.437Z,72.53
2019-05-07T06:15:01.784Z,72.07
2019-05-07T06:17:49.264Z,72.29
2019-05-07T06:20:22.687Z,72.11
2019-05-07T06:23:10.023Z,72.38
2019-05-07T06:25:42.604Z,71.91
2019-05-07T06:28:12.650Z,71.90
2019-05-07T06:30:42.554Z,71.81
2019-05-07T06:33:12.528Z,70.84
2019-05-07T06:35:43.046Z,70.98
2019-05-07T06:38:14.319Z,71.04
2019-05-07T06:40:46.225Z,70.91
2019-05-07T06:43:17.581Z,71.35
2019-05-07T06:45:52.003Z,70.71
2019-05-07T06:48:37.219Z,70.66
2019-05-07T06:50:59.669Z,69.77
2019-05-07T06:53:33.529Z,68.16
2019-05-07T06:56:03.791Z,67.76
2019-05-07T06:58:47.189Z,68.44
2019-05-07T07:01:34.548Z,68.73
2019-05-07T07:04:05.990Z,68.06
2019-05-07T07:06:47.521Z,67.84
2019-05-07T07:09:34.235Z,68.08
2019-05-07T07:12:05.651Z,66.54
2019-05-07T07:14:35.290Z,65.84
2019-05-07T07:17:05.058Z,66.21
2019-05-07T07:19:36.213Z,66.09
2019-05-07T07:22:06.156Z,66.49
2019-05-07T07:24:35.797Z,66.72
2019-05-07T07:27:05.564Z,67.01
2019-05-07T07:29:41.928Z,66.18
2019-05-07T07:32:13.089Z,66.32
2019-05-07T07:34:44.345Z,66.05
2019-05-07T07:37:18.618Z,64.36
2019-05-07T07:39:47.432Z,65.00
2019-05-07T07:42:17.102Z,64.86
2019-05-07T07:44:48.365Z,64.07
2019-05-07T07:47:18.008Z,64.11
2019-05-07T07:49:47.865Z,64.04
2019-05-07T07:52:17.510Z,64.13
2019-05-07T07:54:47.134Z,62.97
2019-05-07T07:57:34.674Z,62.69
2019-05-07T08:00:08.067Z,63.79
2019-05-07T08:02:39.416Z,64.05
2019-05-07T08:05:09.839Z,63.80
2019-05-07T08:07:39.486Z,63.42
2019-05-07T08:10:09.707Z,63.77
2019-05-07T08:12:39.409Z,60.85
2019-05-07T08:15:16.718Z,62.08
2019-05-07T08:17:41.967Z,60.85
2019-05-07T08:20:12.902Z,59.32
2019-05-07T08:22:42.555Z,59.27
2019-05-07T08:25:12.808Z,58.15
2019-05-07T08:27:42.483Z,56.78
2019-05-07T08:30:14.074Z,57.78
2019-05-07T08:32:54.075Z,55.27
2019-05-07T08:35:28.066Z,54.89
2019-05-07T08:37:57.821Z,51.61
2019-05-07T08:40:27.535Z,49.63
2019-05-07T08:42:58.317Z,52.02
2019-05-07T08:45:46.019Z,51.49
2019-05-07T08:48:17.271Z,50.75
2019-05-07T08:50:46.914Z,53.27
2019-05-07T08:53:16.539Z,50.98
2019-05-07T08:55:46.230Z,52.63
2019-05-07T08:58:15.910Z,49.46
2019-05-07T09:00:45.518Z,48.90
2019-05-07T09:03:22.144Z,45.15
2019-05-07T09:05:48.181Z,43.89
2019-05-07T09:08:17.792Z,44.00
2019-05-07T09:10:47.410Z,47.31
2019-05-07T09:13:17.050Z,45.46
2019-05-07T09:15:46.664Z,43.87
2019-05-07T09:18:16.299Z,42.69
2019-05-07T09:20:46.000Z,42.29
2019-05-07T09:23:15.641Z,42.11
2019-05-07T09:25:46.914Z,42.07
2019-05-07T09:28:16.977Z,42.16
2019-05-07T09:31:06.046Z,41.49
2019-05-07T09:33:37.339Z,42.03
2019-05-07T09:36:08.597Z,41.60
2019-05-07T09:38:38.234Z,40.33
2019-05-07T09:41:09.506Z,41.10
2019-05-07T09:43:39.179Z,43.78
2019-05-07T09:46:08.780Z,41.69
2019-05-07T09:48:38.514Z,43.47
2019-05-07T09:51:08.130Z,42.50
2019-05-07T09:53:37.775Z,40.68
2019-05-07T09:56:07.403Z,39.82
2019-05-07T09:58:39.195Z,41.21
2019-05-07T10:01:08.609Z,39.59
2019-05-07T10:03:38.416Z,38.83
2019-05-07T10:06:08.185Z,36.70
2019-05-07T10:08:38.007Z,37.48
2019-05-07T10:11:09.285Z,37.00
2019-05-07T10:13:42.009Z,37.28
2019-05-07T10:16:12.753Z,38.67
2019-05-07T10:18:42.890Z,37.97
2019-05-07T10:21:12.830Z,37.28
2019-05-07T10:23:42.610Z,36.87
2019-05-07T10:26:12.327Z,37.77
2019-05-07T10:28:42.466Z,37.43
2019-05-07T10:31:12.417Z,37.43
2019-05-07T10:33:42.375Z,36.56
2019-05-07T10:36:12.578Z,37.15
2019-05-07T10:38:42.407Z,35.67
2019-05-07T10:41:12.664Z,35.25
2019-05-07T10:43:42.912Z,35.56
2019-05-07T10:46:15.601Z,34.69
2019-05-07T10:48:46.888Z,34.71
2019-05-07T10:51:16.753Z,35.53
2019-05-07T10:53:46.478Z,37.65
2019-05-07T10:56:16.099Z,35.27
2019-05-07T10:58:45.863Z,35.36
2019-05-07T11:01:18.056Z,35.94
2019-05-07T11:03:47.673Z,35.50
2019-05-07T11:06:17.384Z,34.89
2019-05-07T11:08:47.170Z,36.61
2019-05-07T11:11:16.929Z,37.23
2019-05-07T11:13:46.547Z,35.88
2019-05-07T11:16:17.840Z,37.03
2019-05-07T11:18:49.106Z,35.25
2019-05-07T11:21:22.181Z,36.00
2019-05-07T11:23:52.216Z,35.75
2019-05-07T11:26:22.233Z,35.27
2019-05-07T11:28:51.898Z,35.59
2019-05-07T11:31:22.387Z,36.83
2019-05-07T11:33:52.177Z,37.00
2019-05-07T11:36:21.937Z,35.40
2019-05-07T11:38:52.678Z,36.48
2019-05-07T11:41:24.117Z,35.27
2019-05-07T11:43:55.370Z,35.13
2019-05-07T11:46:26.642Z,35.65
2019-05-07T11:48:57.940Z,36.33
2019-05-07T11:51:37.921Z,35.62
2019-05-07T11:54:14.419Z,35.57
2019-05-07T11:56:44.221Z,33.97
2019-05-07T11:59:13.848Z,34.88
2019-05-07T12:01:47.810Z,35.10
2019-05-07T12:04:16.696Z,33.79
2019-05-07T12:06:46.319Z,32.46
2019-05-07T12:09:15.958Z,32.17
2019-05-07T12:11:45.584Z,31.94
2019-05-07T12:14:27.979Z,31.94
2019-05-07T12:16:46.572Z,33.08
2019-05-07T12:19:16.698Z,31.40
2019-05-07T12:21:46.765Z,31.26
2019-05-07T12:24:16.659Z,31.08
2019-05-07T12:26:46.547Z,31.42
2019-05-07T12:29:16.202Z,32.53
2019-05-07T12:31:45.590Z,31.24
2019-05-07T12:34:16.848Z,31.81
2019-05-07T12:36:46.498Z,32.38
2019-05-07T12:39:16.192Z,32.28
2019-05-07T12:41:45.844Z,31.12
2019-05-07T12:44:15.472Z,31.13
2019-05-07T12:46:45.188Z,30.69
2019-05-07T12:49:14.808Z,31.98
2019-05-07T12:51:46.162Z,31.19
2019-05-07T12:54:22.544Z,29.95
2019-05-07T12:56:52.059Z,30.46
2019-05-07T12:59:22.005Z,29.36
2019-05-07T13:02:17.967Z,30.11
2019-05-07T13:04:37.410Z,29.75
2019-05-07T13:07:14.678Z,30.31
2019-05-07T13:09:44.290Z,29.69
2019-05-07T13:12:14.080Z,29.68
2019-05-07T13:14:43.709Z,29.86
2019-05-07T13:17:13.333Z,29.77
2019-05-07T13:19:42.975Z,30.36
2019-05-07T13:22:13.138Z,31.31
2019-05-07T13:24:44.471Z,28.96
2019-05-07T13:27:19.660Z,29.03
2019-05-07T13:29:50.016Z,29.18
2019-05-07T13:32:22.437Z,29.46
2019-05-07T13:34:53.605Z,30.11
2019-05-07T13:37:25.239Z,29.46
2019-05-07T13:39:56.958Z,29.49
2019-05-07T13:42:44.217Z,29.94
2019-05-07T13:45:22.799Z,30.36
2019-05-07T13:47:54.497Z,30.13
2019-05-07T13:50:24.241Z,29.13
2019-05-07T13:52:53.938Z,29.51
2019-05-07T13:55:23.560Z,29.30
2019-05-07T13:57:53.279Z,30.29
2019-05-07T14:00:28.306Z,32.04
2019-05-07T14:02:58.186Z,30.86
2019-05-07T14:05:27.902Z,30.45
2019-05-07T14:07:58.061Z,30.91
2019-05-07T14:10:27.695Z,30.48
2019-05-07T14:13:08.500Z,30.51
2019-05-07T14:15:28.819Z,30.52
2019-05-07T14:17:58.459Z,30.46
2019-05-07T14:20:28.155Z,30.15
2019-05-07T14:22:57.874Z,29.52
2019-05-07T14:25:27.488Z,29.22
2019-05-07T14:27:58.811Z,29.02
2019-05-07T14:30:28.785Z,28.10
2019-05-07T14:33:03.044Z,28.82
2019-05-07T14:35:39.974Z,28.69
2019-05-07T14:38:23.490Z,27.99
2019-05-07T14:40:53.117Z,28.14
2019-05-07T14:43:26.875Z,29.50
2019-05-07T14:45:56.599Z,27.71
2019-05-07T14:48:26.371Z,27.30
2019-05-07T14:50:56.085Z,26.98
2019-05-07T14:53:25.924Z,26.58
2019-05-07T14:55:55.644Z,25.81
2019-05-07T14:58:25.399Z,25.90
2019-05-07T15:00:55.114Z,24.90
2019-05-07T15:03:24.739Z,25.42
2019-05-07T15:05:54.625Z,24.91
2019-05-07T15:08:24.646Z,24.32
2019-05-07T15:10:54.359Z,23.80
2019-05-07T15:13:24.004Z,23.64
2019-05-07T15:15:53.774Z,24.23
2019-05-07T15:18:28.328Z,25.64
2019-05-07T15:20:57.943Z,24.78
2019-05-07T15:23:29.450Z,25.43
2019-05-07T15:26:02.073Z,25.75
2019-05-07T15:28:32.314Z,25.99
2019-05-07T15:31:03.852Z,26.99
2019-05-07T15:33:33.487Z,26.85
2019-05-07T15:36:06.095Z,28.82
2019-05-07T15:38:34.687Z,29.54
2019-05-07T15:41:04.477Z,30.32
2019-05-07T15:43:34.236Z,27.99
2019-05-07T15:46:04.098Z,29.24
2019-05-07T15:48:33.727Z,29.44
2019-05-07T15:51:03.583Z,29.42
2019-05-07T15:53:34.853Z,27.84
2019-05-07T15:56:04.659Z,26.99
2019-05-07T15:58:34.278Z,26.34
2019-05-07T16:01:04.050Z,26.36
2019-05-07T16:03:35.337Z,25.96
2019-05-07T16:06:05.496Z,25.87
2019-05-07T16:08:36.851Z,25.99
2019-05-07T16:11:06.685Z,26.55
2019-05-07T16:13:37.965Z,26.42
2019-05-07T16:16:07.598Z,27.20
2019-05-07T16:18:55.156Z,26.30
2019-05-07T16:21:24.775Z,26.04
2019-05-07T16:23:54.838Z,26.73
2019-05-07T16:26:24.520Z,27.91
2019-05-07T16:28:54.182Z,28.01
2019-05-07T16:31:24.671Z,29.14
2019-05-07T16:33:54.510Z,29.47
2019-05-07T16:36:24.157Z,29.14
2019-05-07T16:38:53.777Z,28.83
2019-05-07T16:41:23.437Z,28.92
2019-05-07T16:43:53.052Z,29.14
2019-05-07T16:46:22.767Z,28.91
2019-05-07T16:48:52.412Z,27.70
2019-05-07T16:51:22.530Z,28.93
2019-05-07T16:53:52.536Z,29.26
2019-05-07T16:56:22.760Z,28.29
2019-05-07T16:59:01.679Z,28.95
2019-05-07T17:01:32.462Z,29.46
2019-05-07T17:04:02.915Z,30.12
2019-05-07T17:06:32.652Z,31.79
2019-05-07T17:09:09.772Z,32.59
2019-05-07T17:11:39.443Z,32.44
2019-05-07T17:14:09.066Z,32.94
2019-05-07T17:16:38.690Z,32.81
2019-05-07T17:19:09.074Z,31.85
2019-05-07T17:21:38.693Z,33.10
2019-05-07T17:24:08.336Z,32.83
2019-05-07T17:26:38.236Z,34.02
2019-05-07T17:29:08.024Z,34.57
2019-05-07T17:31:37.655Z,35.73
2019-05-07T17:34:07.296Z,35.61
2019-05-07T17:36:36.924Z,36.12
2019-05-07T17:39:08.765Z,35.85
2019-05-07T17:41:38.391Z,36.25
2019-05-07T17:44:08.021Z,36.08
2019-05-07T17:46:37.661Z,37.13
2019-05-07T17:49:07.280Z,37.55
2019-05-07T17:51:46.238Z,37.95
2019-05-07T17:54:16.072Z,37.68
2019-05-07T17:56:45.934Z,39.08
2019-05-07T17:59:15.602Z,39.27
2019-05-07T18:01:50.036Z,38.95
2019-05-07T18:04:18.303Z,39.95
2019-05-07T18:06:47.938Z,40.26
2019-05-07T18:09:17.556Z,40.41
2019-05-07T18:11:47.207Z,41.15
2019-05-07T18:14:16.834Z,41.13
2019-05-07T18:16:57.798Z,41.67
2019-05-07T18:19:29.062Z,41.79
2019-05-07T18:21:58.723Z,43.23
2019-05-07T18:24:28.364Z,42.92
2019-05-07T18:26:58.055Z,42.42
2019-05-07T18:29:27.822Z,42.98
2019-05-07T18:31:59.098Z,43.62
2019-05-07T18:34:28.809Z,43.99
2019-05-07T18:36:58.507Z,44.30
2019-05-07T18:39:28.163Z,44.63
2019-05-07T18:41:57.851Z,44.82
2019-05-07T18:44:27.539Z,44.61
2019-05-07T18:46:57.237Z,44.98
2019-05-07T18:49:26.853Z,45.57
2019-05-07T18:51:56.502Z,45.35
2019-05-07T18:54:30.966Z,45.99
2019-05-07T18:56:57.656Z,46.64
2019-05-07T18:59:28.917Z,47.34
2019-05-07T19:01:58.587Z,47.92
2019-05-07T19:04:30.201Z,48.34
2019-05-07T19:07:02.380Z,49.08
2019-05-07T19:09:32.084Z,49.15
2019-05-07T19:12:02.988Z,49.02
2019-05-07T19:14:33.379Z,49.28
2019-05-07T19:17:03.613Z,49.30
2019-05-07T19:19:33.487Z,49.31
2019-05-07T19:22:03.599Z,48.69
2019-05-07T19:24:44.361Z,48.48
2019-05-07T19:27:05.024Z,48.42
2019-05-07T19:29:34.872Z,48.95
2019-05-07T19:32:06.317Z,49.35
2019-05-07T19:34:36.242Z,48.91
2019-05-07T19:37:06.226Z,48.87
2019-05-07T19:39:36.123Z,48.63
2019-05-07T19:42:05.864Z,49.68
2019-05-07T19:44:35.533Z,49.90
2019-05-07T19:47:05.222Z,49.74
2019-05-07T19:49:34.875Z,49.76
2019-05-07T19:52:04.499Z,50.26
2019-05-07T19:54:34.151Z,50.20
2019-05-07T19:57:03.843Z,50.04
2019-05-07T19:59:33.565Z,49.68
2019-05-07T20:02:04.893Z,48.85
2019-05-07T20:04:34.538Z,49.66
2019-05-07T20:07:04.177Z,50.03
2019-05-07T20:09:35.443Z,50.37
2019-05-07T20:12:07.922Z,50.04
2019-05-07T20:14:36.580Z,50.63
2019-05-07T20:17:06.298Z,50.58
2019-05-07T20:19:35.941Z,51.57
2019-05-07T20:22:05.734Z,51.38
2019-05-07T20:24:35.361Z,51.73
2019-05-07T20:27:05.173Z,51.65
2019-05-07T20:29:34.799Z,50.10
2019-05-07T20:32:04.482Z,50.17
2019-05-07T20:34:34.128Z,50.83
2019-05-07T20:37:03.901Z,51.15
2019-05-07T20:39:33.547Z,51.42
2019-05-07T20:42:03.231Z,52.31
2019-05-07T20:44:32.902Z,51.52
2019-05-07T20:47:02.579Z,52.03
2019-05-07T20:49:32.291Z,52.53
2019-05-07T20:52:01.918Z,52.56
2019-05-07T20:54:33.211Z,51.79
2019-05-07T20:57:22.957Z,52.70
2019-05-07T20:59:52.620Z,52.61
2019-05-07T21:02:22.844Z,52.84
2019-05-07T21:04:52.553Z,53.37
2019-05-07T21:07:22.396Z,53.78
2019-05-07T21:09:53.009Z,53.89
2019-05-07T21:12:22.781Z,53.99
2019-05-07T21:14:52.641Z,53.96
2019-05-07T21:17:22.774Z,53.63
2019-05-07T21:19:52.644Z,53.73
2019-05-07T21:22:22.777Z,53.74
2019-05-07T21:24:53.202Z,53.54
2019-05-07T21:27:23.208Z,53.13
2019-05-07T21:29:52.922Z,53.66
2019-05-07T21:32:23.205Z,53.52
2019-05-07T21:34:52.967Z,54.41
2019-05-07T21:37:22.960Z,55.14
2019-05-07T21:39:53.242Z,55.09
2019-05-07T21:42:23.159Z,55.32
2019-05-07T21:44:52.891Z,55.24
2019-05-07T21:47:22.574Z,55.23
2019-05-07T21:49:54.914Z,55.74
2019-05-07T21:52:25.250Z,55.43
2019-05-07T21:54:56.566Z,55.35
2019-05-07T21:57:32.824Z,55.60
2019-05-07T22:00:12.667Z,54.86
2019-05-07T22:02:42.620Z,54.68
2019-05-07T22:05:13.069Z,54.57
2019-05-07T22:07:42.827Z,54.90
2019-05-07T22:10:13.160Z,54.47
2019-05-07T22:12:43.148Z,54.47
2019-05-07T22:15:13.105Z,54.94
2019-05-07T22:17:44.395Z,55.71
2019-05-07T22:20:14.349Z,55.36
2019-05-07T22:22:44.065Z,55.35
2019-05-07T22:25:13.829Z,56.24
2019-05-07T22:27:43.500Z,56.57
2019-05-07T22:30:23.821Z,55.87
2019-05-07T22:32:55.125Z,55.54
2019-05-07T22:35:26.390Z,56.12
2019-05-07T22:37:56.008Z,56.56
2019-05-07T22:40:25.723Z,56.20
2019-05-07T22:42:55.351Z,55.81
2019-05-07T22:45:25.069Z,55.98
2019-05-07T22:47:54.696Z,57.01
2019-05-07T22:50:24.410Z,57.54
2019-05-07T22:52:54.408Z,55.76
2019-05-07T22:55:24.335Z,55.82
2019-05-07T22:57:58.009Z,56.24
2019-05-07T23:00:29.306Z,56.81
2019-05-07T23:02:58.944Z,57.39
2019-05-07T23:05:28.600Z,57.21
2019-05-07T23:07:58.230Z,57.84
2019-05-07T23:10:28.000Z,57.86
2019-05-07T23:13:01.888Z,56.83
2019-05-07T23:15:32.188Z,57.13
2019-05-07T23:18:04.227Z,57.73
2019-05-07T23:20:33.358Z,58.11
2019-05-07T23:23:03.012Z,56.96
2019-05-07T23:25:32.635Z,57.73
2019-05-07T23:28:04.870Z,57.94
2019-05-07T23:30:33.624Z,58.08
2019-05-07T23:33:03.371Z,57.56
2019-05-07T23:35:32.997Z,57.06
2019-05-07T23:38:02.648Z,57.43
2019-05-07T23:40:52.467Z,56.80
2019-05-07T23:43:22.952Z,57.07
2019-05-07T23:45:52.716Z,56.18
2019-05-07T23:48:22.875Z,57.43
2019-05-07T23:50:52.705Z,57.66
2019-05-07T23:53:22.577Z,58.00
2019-05-07T23:55:52.380Z,57.43
2019-05-07T23:58:23.057Z,57.38
